Time;durP1;ratioP1;P1;durP2;ratioP2;P2;SDS_P1;SDS_P2;PMS_P1;PMS_P2;Temp;Humidity;BMP_temperature;BMP_pressure;BME280_temperature;BME280_humidity;BME280_pressure;Samples;Min_cycle;Max_cycle;Signal;HPM_P1;HPM_P2
2022/03/18 00:01:58;;;;;;;100.53;65.10;;;;;;;11.85;53.46;96703.84;4969949;28;20473;-63
2022/03/18 00:04:24;;;;;;;101.25;65.45;;;;;;;11.01;55.63;96702.72;4955152;28;20118;-64
2022/03/18 00:06:49;;;;;;;102.63;65.18;;;;;;;10.81;57.09;96710.72;4955071;28;20035;-65
2022/03/18 00:09:15;;;;;;;98.25;64.97;;;;;;;10.47;57.53;96718.41;4954776;28;20028;-64
2022/03/18 00:11:40;;;;;;;101.20;64.22;;;;;;;10.34;58.59;96715.19;4954756;28;20023;-64
2022/03/18 00:14:05;;;;;;;103.63;63.65;;;;;;;10.32;58.59;96687.25;4954976;28;20034;-64
2022/03/18 00:16:31;;;;;;;103.18;65.10;;;;;;;10.29;58.68;96701.91;4954924;28;20470;-65
2022/03/18 00:19:00;;;;;;;109.05;66.53;;;;;;;10.51;58.40;96711.50;4954607;28;20096;-64
2022/03/18 00:21:26;;;;;;;110.22;66.28;;;;;;;10.18;58.58;96694.09;4954682;28;20030;-64
2022/03/18 00:23:51;;;;;;;106.53;66.13;;;;;;;10.43;57.39;96678.22;4954590;28;20035;-64
2022/03/18 00:26:17;;;;;;;108.18;66.00;;;;;;;10.34;58.17;96703.78;4954608;28;20465;-65
2022/03/18 00:28:43;;;;;;;113.28;68.95;;;;;;;10.57;57.85;96703.25;4954474;28;20106;-64
2022/03/18 00:31:08;;;;;;;108.40;67.93;;;;;;;10.43;57.86;96691.53;4954151;28;20039;-64
2022/03/18 00:33:34;;;;;;;107.80;67.60;;;;;;;10.62;58.04;96721.09;4954668;28;20035;-64
2022/03/18 00:36:01;;;;;;;109.47;67.32;;;;;;;10.45;57.87;96717.88;4954384;28;20034;-64
2022/03/18 00:38:26;;;;;;;109.15;66.75;;;;;;;10.48;57.41;96699.50;4954086;28;20532;-64
2022/03/18 00:40:54;;;;;;;116.13;70.60;;;;;;;10.49;58.12;96717.06;4954380;28;20031;-65
2022/03/18 00:43:19;;;;;;;111.15;68.18;;;;;;;10.10;59.51;96717.50;4954533;28;20027;-63
2022/03/18 00:45:45;;;;;;;108.30;68.70;;;;;;;9.98;59.82;96714.28;4954224;28;20109;-65
2022/03/18 00:53:38;;;;;;;115.43;69.72;;;;;;;9.56;60.62;96709.03;4954542;29;20046;-64
2022/03/18 00:56:03;;;;;;;116.82;70.05;;;;;;;9.98;59.80;96714.28;4954027;28;20023;-64
2022/03/18 00:58:29;;;;;;;114.68;68.88;;;;;;;9.71;60.54;96725.06;4953963;28;20113;-65
2022/03/18 01:00:55;;;;;;;110.15;67.47;;;;;;;9.48;61.36;96720.19;4954064;28;20374;-64
2022/03/18 01:03:21;;;;;;;107.90;68.75;;;;;;;9.45;61.24;96732.09;4953827;28;20123;-65
2022/03/18 01:05:46;;;;;;;111.80;67.95;;;;;;;9.78;60.14;96727.50;4954058;28;20684;-65
2022/03/18 01:08:11;;;;;;;112.25;68.57;;;;;;;10.25;59.12;96711.47;4953889;28;20019;-65
2022/03/18 01:10:37;;;;;;;117.05;69.40;;;;;;;10.61;58.25;96711.50;4953766;28;20107;-63
2022/03/18 01:13:02;;;;;;;120.15;72.80;;;;;;;10.79;58.13;96728.81;4968764;28;20118;-64
2022/03/18 01:15:28;;;;;;;116.03;69.75;;;;;;;10.65;57.39;96692.09;4968719;28;20031;-62
2022/03/18 01:17:54;;;;;;;107.93;66.60;;;;;;;10.83;56.67;96724.53;4953722;28;20029;-64
2022/03/18 01:20:19;;;;;;;111.95;68.68;;;;;;;10.28;57.09;96672.88;4968201;28;20542;-65
2022/03/18 01:22:45;;;;;;;112.65;67.88;;;;;;;10.69;57.36;96716.28;4953857;28;20031;-64
2022/03/18 01:25:10;;;;;;;113.22;67.55;;;;;;;10.82;56.77;96726.41;4953774;28;20484;-64
2022/03/18 01:27:35;;;;;;;111.85;68.18;;;;;;;10.88;56.55;96713.91;4953667;28;20044;-64
2022/03/18 01:30:01;;;;;;;112.60;68.78;;;;;;;11.09;56.47;96717.34;4968315;28;20085;-64
2022/03/18 01:32:26;;;;;;;110.30;66.47;;;;;;;10.95;55.93;96682.47;4968280;28;20428;-63
2022/03/18 01:34:53;;;;;;;109.95;67.07;;;;;;;11.23;55.61;96709.59;4953618;28;20066;-64
2022/03/18 01:37:19;;;;;;;112.22;68.07;;;;;;;11.37;55.42;96721.31;4953623;28;20023;-64
2022/03/18 01:39:44;;;;;;;108.68;66.57;;;;;;;11.12;54.70;96695.50;4953403;28;20074;-65
2022/03/18 01:42:09;;;;;;;104.63;64.47;;;;;;;11.07;54.85;96714.97;4953433;28;20035;-64
2022/03/18 01:44:41;;;;;;;106.60;66.53;;;;;;;10.98;55.20;96718.41;4953543;28;20043;-64
2022/03/18 01:47:07;;;;;;;105.22;65.78;;;;;;;11.22;55.33;96724.78;4953419;28;20596;-65
2022/03/18 01:49:32;;;;;;;104.40;64.10;;;;;;;11.05;55.12;96725.06;4953327;28;20536;-62
2022/03/18 01:51:58;;;;;;;104.57;64.63;;;;;;;11.25;54.80;96707.47;4968270;28;20170;-64
2022/03/18 01:57:08;;;;;;;104.32;62.63;;;;;;;11.52;53.96;96723.16;4953423;29;20085;-64
2022/03/18 01:59:34;;;;;;;104.65;65.15;;;;;;;11.43;54.19;96698.91;4951852;28;20114;-65
2022/03/18 02:01:59;;;;;;;108.18;66.03;;;;;;;11.49;54.16;96721.81;4953270;28;20156;-64
2022/03/18 02:04:24;;;;;;;104.75;64.03;;;;;;;10.79;55.50;96705.63;4972059;28;20031;-64
2022/03/18 02:06:51;;;;;;;109.63;65.53;;;;;;;10.60;56.50;96728.53;4957346;28;20038;-62
2022/03/18 02:09:17;;;;;;;105.20;63.45;;;;;;;10.39;55.93;96711.75;4971799;28;20400;-64
2022/03/18 02:11:43;;;;;;;104.20;65.07;;;;;;;10.57;56.79;96734.38;4957011;28;20101;-64
2022/03/18 02:14:08;;;;;;;110.15;66.10;;;;;;;10.34;57.24;96731.16;4957104;28;20469;-65
2022/03/18 02:16:34;;;;;;;100.93;63.92;;;;;;;10.74;56.64;96739.44;4956981;28;20034;-64
2022/03/18 02:18:59;;;;;;;99.53;62.25;;;;;;;11.09;56.05;96744.78;4971806;28;20495;-64
2022/03/18 02:21:28;;;;;;;103.65;63.67;;;;;;;11.23;55.01;96729.06;4957061;28;20031;-64
2022/03/18 02:23:53;;;;;;;103.40;64.90;;;;;;;11.31;55.13;96733.84;4957056;28;20023;-65
2022/03/18 02:26:19;;;;;;;108.55;67.00;;;;;;;11.31;54.92;96717.88;4971837;28;20026;-64
2022/03/18 02:28:44;;;;;;;101.75;62.88;;;;;;;11.51;54.31;96718.84;4956783;28;20028;-64
2022/03/18 02:31:09;;;;;;;103.45;66.35;;;;;;;11.57;54.34;96723.13;4956661;28;20031;-63
2022/03/18 02:33:35;;;;;;;110.75;66.75;;;;;;;11.45;53.77;96705.53;4956852;28;20062;-63
2022/03/18 02:36:00;;;;;;;105.20;65.07;;;;;;;11.63;53.98;96738.03;4955302;29;20027;-63
2022/03/18 02:38:26;;;;;;;98.90;62.88;;;;;;;11.15;53.96;96665.66;4956498;28;20027;-63
2022/03/18 02:40:51;;;;;;;106.10;65.43;;;;;;;11.53;53.26;96732.72;4956514;28;20027;-64
2022/03/18 02:43:16;;;;;;;99.65;62.47;;;;;;;11.32;53.81;96711.47;4971407;28;20015;-63
2022/03/18 02:45:42;;;;;;;104.18;63.50;;;;;;;11.18;53.75;96689.91;4956460;28;20034;-64
2022/03/18 02:48:07;;;;;;;100.90;62.22;;;;;;;11.33;53.44;96729.03;4955297;28;20448;-64
2022/03/18 02:50:33;;;;;;;110.13;68.07;;;;;;;11.24;54.24;96741.28;4956250;28;20488;-63
2022/03/18 02:52:59;;;;;;;110.35;64.18;;;;;;;11.16;54.50;96737.31;4956500;28;20484;-64
2022/03/18 02:55:26;;;;;;;104.63;63.38;;;;;;;10.87;54.35;96733.59;4956317;28;20082;-64
2022/03/18 02:57:51;;;;;;;105.40;63.13;;;;;;;10.81;54.71;96740.78;4956416;28;20473;-64
2022/03/18 03:00:17;;;;;;;108.10;64.55;;;;;;;10.83;55.03;96738.66;4970747;28;20183;-65
2022/03/18 03:02:42;;;;;;;107.80;63.95;;;;;;;10.82;55.21;96737.06;4956180;28;20027;-64
2022/03/18 03:08:01;;;;;;;107.20;65.80;;;;;;;10.47;56.51;96740.47;4956153;29;20502;-64
2022/03/18 03:10:31;;;;;;;113.15;66.95;;;;;;;10.77;55.75;96747.72;4955787;28;20044;-64
2022/03/18 03:12:59;;;;;;;108.47;65.65;;;;;;;10.73;55.25;96738.66;4971032;28;20023;-64
2022/03/18 03:15:25;;;;;;;107.32;64.88;;;;;;;10.87;54.87;96739.72;4955391;28;20514;-64
2022/03/18 03:17:50;;;;;;;103.18;62.65;;;;;;;10.95;54.88;96754.34;4956077;28;20031;-64
2022/03/18 03:20:16;;;;;;;105.75;62.80;;;;;;;10.81;54.77;96724.81;4955599;28;20469;-64
2022/03/18 03:22:41;;;;;;;103.63;63.65;;;;;;;10.52;55.52;96734.38;4956175;28;20107;-64
2022/03/18 03:25:07;;;;;;;103.70;64.25;;;;;;;10.71;55.59;96730.13;4955756;28;20035;-64
2022/03/18 03:27:32;;;;;;;108.03;65.35;;;;;;;10.82;54.72;96734.41;4955709;28;20113;-64
2022/03/18 03:30:04;;;;;;;104.82;63.28;;;;;;;10.91;54.52;96740.78;4955688;28;20354;-64
2022/03/18 03:32:29;;;;;;;106.82;65.13;;;;;;;10.83;54.76;96761.81;4955596;28;20027;-64
2022/03/18 03:34:57;;;;;;;106.28;63.45;;;;;;;10.68;54.68;96765.25;4955739;28;20042;-64
2022/03/18 03:37:22;;;;;;;123.50;70.30;;;;;;;10.88;55.02;96769.81;4955418;28;20098;-64
2022/03/18 03:39:47;;;;;;;107.22;66.18;;;;;;;10.87;55.17;96752.25;4955318;28;20023;-63
2022/03/18 03:42:13;;;;;;;113.40;67.78;;;;;;;11.03;54.41;96767.16;4970469;28;20090;-64
2022/03/18 03:44:38;;;;;;;107.40;64.13;;;;;;;11.05;54.62;96762.34;4955572;28;20035;-64
2022/03/18 03:47:04;;;;;;;108.88;64.82;;;;;;;11.12;54.21;96759.44;4955646;28;20094;-64
2022/03/18 03:49:29;;;;;;;99.18;60.60;;;;;;;11.30;54.12;96780.19;4955322;28;20028;-64
2022/03/18 03:51:55;;;;;;;105.55;64.78;;;;;;;11.24;54.23;96778.59;4954646;28;20039;-64
2022/03/18 03:54:20;;;;;;;96.78;60.72;;;;;;;11.20;54.07;96775.66;4954434;28;20476;-65
2022/03/18 03:56:45;;;;;;;100.15;61.78;;;;;;;11.28;53.91;96782.31;4955247;28;20046;-64
2022/03/18 03:59:11;;;;;;;103.22;61.80;;;;;;;11.30;53.62;96769.53;4955007;28;20401;-64
2022/03/18 04:01:36;;;;;;;110.55;64.75;;;;;;;11.19;53.71;96755.41;4955055;28;20023;-65
2022/03/18 04:04:04;;;;;;;111.40;64.88;;;;;;;11.28;53.04;96763.66;4969887;28;20388;-64
2022/03/18 04:06:30;;;;;;;105.40;63.78;;;;;;;11.43;53.09;96786.84;4969736;28;20034;-64
2022/03/18 04:08:55;;;;;;;101.22;61.45;;;;;;;11.28;53.43;96787.66;4954638;28;20384;-64
2022/03/18 04:11:21;;;;;;;99.97;62.17;;;;;;;10.88;53.62;96775.91;4954868;28;20034;-64
2022/03/18 04:13:46;;;;;;;99.93;60.47;;;;;;;10.59;54.06;96791.56;4969838;28;20031;-65
2022/03/18 04:16:11;;;;;;;97.45;60.38;;;;;;;9.81;56.66;96799.50;4955076;28;20055;-64
2022/03/18 04:18:37;;;;;;;96.70;60.15;;;;;;;9.63;58.09;96795.44;4954654;28;20042;-65
2022/03/18 04:21:02;;;;;;;102.32;61.72;;;;;;;9.60;58.39;96819.06;4954765;28;20023;-64
2022/03/18 04:23:27;;;;;;;102.55;62.40;;;;;;;8.99;59.89;96808.78;4954711;28;20034;-64
2022/03/18 04:25:53;;;;;;;105.18;61.20;;;;;;;8.74;60.89;96800.59;4953922;28;20482;-64
2022/03/18 04:28:18;;;;;;;109.63;63.53;;;;;;;9.04;60.30;96822.09;4954613;28;20031;-62
2022/03/18 04:30:44;;;;;;;104.88;63.00;;;;;;;9.10;59.94;96807.81;4954272;28;20418;-63
2022/03/18 04:33:09;;;;;;;107.72;64.00;;;;;;;9.26;59.31;96831.81;4954719;29;20461;-64
2022/03/18 04:35:35;;;;;;;105.00;63.90;;;;;;;9.45;59.71;96838.34;4954474;28;20050;-64
2022/03/18 04:38:00;;;;;;;101.32;61.38;;;;;;;9.10;59.53;96810.47;4954340;28;20058;-64
2022/03/18 04:40:26;;;;;;;105.05;64.28;;;;;;;9.53;58.87;96845.84;4954230;28;20054;-66
2022/03/18 04:42:51;;;;;;;105.20;62.30;;;;;;;9.16;59.56;96813.16;4954531;28;20380;-65
2022/03/18 04:45:17;;;;;;;106.50;61.95;;;;;;;9.34;59.71;96837.47;4954338;28;20458;-63
2022/03/18 04:47:42;;;;;;;102.90;63.28;;;;;;;9.28;59.36;96824.41;4954228;28;20029;-65
2022/03/18 04:50:09;;;;;;;100.15;60.72;;;;;;;9.55;58.35;96825.13;4954034;28;20424;-63
2022/03/18 04:52:35;;;;;;;104.03;62.30;;;;;;;9.62;58.48;96840.84;4954234;28;20031;-63
2022/03/18 04:55:01;;;;;;;105.82;65.15;;;;;;;9.90;57.67;96839.69;4954236;28;20030;-64
2022/03/18 04:57:27;;;;;;;113.65;65.68;;;;;;;9.82;57.82;96840.19;4954146;28;20027;-64
2022/03/18 04:59:52;;;;;;;102.18;62.22;;;;;;;9.99;57.14;96854.13;4954003;28;20412;-64
2022/03/18 05:02:20;;;;;;;106.82;62.17;;;;;;;10.04;57.08;96861.31;4953899;28;20027;-64
2022/03/18 05:04:48;;;;;;;101.60;62.35;;;;;;;10.12;56.87;96853.63;4954105;28;20395;-64
2022/03/18 05:07:14;;;;;;;101.97;60.75;;;;;;;9.98;57.10;96868.47;4953894;28;20023;-64
2022/03/18 05:09:40;;;;;;;101.15;59.25;;;;;;;10.10;56.75;96860.28;4953831;28;20069;-64
2022/03/18 05:12:11;;;;;;;104.13;61.25;;;;;;;10.10;56.69;96844.34;4953966;28;20384;-64
2022/03/18 05:14:38;;;;;;;101.97;61.17;;;;;;;10.21;56.51;96834.53;4969010;28;20027;-64
2022/03/18 05:17:05;;;;;;;103.97;60.95;;;;;;;10.45;56.30;96866.84;4953774;28;20035;-64
2022/03/18 05:19:30;;;;;;;103.45;60.65;;;;;;;10.35;56.15;96838.34;4953680;28;20130;-63
2022/03/18 05:21:56;;;;;;;102.07;60.28;;;;;;;10.52;55.49;96844.25;4968464;28;20106;-64
2022/03/18 05:24:21;;;;;;;101.43;61.60;;;;;;;10.79;55.26;96878.66;4953649;28;20023;-64
2022/03/18 05:26:47;;;;;;;95.68;57.92;;;;;;;10.81;55.23;96857.13;4952279;29;20136;-64
2022/03/18 05:29:13;;;;;;;95.05;59.10;;;;;;;10.68;54.11;96855.75;4953513;28;20027;-65
2022/03/18 05:31:39;;;;;;;95.38;59.33;;;;;;;10.03;56.36;96873.81;4953271;28;20019;-64
2022/03/18 05:34:05;;;;;;;91.28;58.10;;;;;;;9.41;58.31;96871.78;4953530;28;20506;-63
2022/03/18 05:36:31;;;;;;;90.65;57.85;;;;;;;9.46;58.19;96884.31;4953372;28;20038;-64
2022/03/18 05:38:57;;;;;;;96.93;58.35;;;;;;;9.53;58.19;96883.03;4952945;28;20054;-64
2022/03/18 05:41:24;;;;;;;92.25;57.47;;;;;;;9.03;59.52;96864.81;4953506;28;20657;-64
2022/03/18 05:43:49;;;;;;;93.53;58.63;;;;;;;9.44;58.83;96875.78;4953511;28;20129;-65
2022/03/18 05:46:14;;;;;;;99.53;59.25;;;;;;;9.68;58.66;96895.66;4953468;28;20504;-64
2022/03/18 05:48:40;;;;;;;93.00;57.70;;;;;;;9.98;57.33;96895.06;4953221;28;20020;-64
2022/03/18 05:51:05;;;;;;;95.03;57.33;;;;;;;9.55;56.78;96808.41;4953174;28;20106;-64
2022/03/18 05:53:30;;;;;;;96.72;59.00;;;;;;;10.10;56.80;96900.16;4953378;28;20027;-64
2022/03/18 05:58:41;;;;;;;94.13;58.03;;;;;;;10.04;57.21;96891.38;4953134;29;20034;-66
2022/03/18 06:01:07;;;;;;;95.45;58.25;;;;;;;10.09;56.47;96901.22;4953179;28;20024;-65
2022/03/18 06:03:33;;;;;;;96.43;58.17;;;;;;;10.43;56.16;96890.25;4953282;28;20535;-63
2022/03/18 06:05:59;;;;;;;91.68;56.05;;;;;;;10.53;55.97;96887.63;4953136;28;20031;-64
2022/03/18 06:13:52;;;;;;;89.05;56.78;;;;;;;10.01;57.04;96910.47;4934167;29;20039;-63
2022/03/18 06:16:17;;;;;;;95.15;57.17;;;;;;;9.82;58.11;96920.72;4934003;29;20389;-64
2022/03/18 06:18:42;;;;;;;85.47;52.10;;;;;;;8.85;60.76;96919.03;4933621;29;20055;-64
2022/03/18 06:21:08;;;;;;;90.57;53.75;;;;;;;9.69;59.42;96928.31;4933955;29;20091;-63
2022/03/18 06:23:34;;;;;;;87.05;55.55;;;;;;;9.97;57.85;96908.59;4934093;29;20456;-64
2022/03/18 06:26:01;;;;;;;84.80;51.22;;;;;;;10.12;57.28;96921.97;4946221;29;20434;-65
2022/03/18 06:28:27;;;;;;;84.22;53.05;;;;;;;10.16;57.06;96909.78;4952842;28;20035;-63
2022/03/18 06:30:53;;;;;;;79.45;52.22;;;;;;;9.84;58.21;96931.91;4953137;28;20053;-61
2022/03/18 06:33:18;;;;;;;81.18;53.25;;;;;;;9.16;59.79;96917.50;4953306;28;20412;-63
2022/03/18 06:35:43;;;;;;;82.10;52.97;;;;;;;10.07;58.18;96929.91;4953060;28;20468;-63
2022/03/18 06:38:09;;;;;;;79.40;51.90;;;;;;;9.74;58.94;96934.47;4953020;28;20042;-62
2022/03/18 06:40:34;;;;;;;78.60;50.08;;;;;;;10.93;56.81;96940.19;4951661;28;20046;-63
2022/03/18 06:43:00;;;;;;;76.63;49.45;;;;;;;10.62;55.50;96925.97;4952853;28;20119;-63
2022/03/18 06:45:26;;;;;;;76.72;48.55;;;;;;;10.38;55.98;96931.72;4952759;28;20106;-64
2022/03/18 06:47:52;;;;;;;76.50;48.75;;;;;;;10.89;55.44;96942.56;4952879;28;20034;-64
2022/03/18 06:50:17;;;;;;;82.15;50.60;;;;;;;10.65;55.01;96942.25;4954486;28;20031;-64
2022/03/18 06:52:43;;;;;;;68.85;45.08;;;;;;;9.66;58.18;96964.16;4971007;28;20051;-64
2022/03/18 06:55:08;;;;;;;75.03;46.05;;;;;;;10.64;55.76;96956.56;4955406;28;20026;-64
2022/03/18 06:57:34;;;;;;;72.57;47.03;;;;;;;10.92;54.38;96955.38;4956393;28;20500;-64
2022/03/18 06:59:59;;;;;;;64.65;44.03;;;;;;;10.68;54.52;96938.25;4956180;28;20023;-63
2022/03/18 07:02:26;;;;;;;64.43;43.72;;;;;;;10.40;56.12;96969.50;4956075;28;20035;-63
2022/03/18 07:04:55;;;;;;;61.72;39.63;;;;;;;10.36;56.70;96973.75;4956133;29;20038;-63
2022/03/18 07:07:32;;;;;;;66.97;44.20;;;;;;;11.37;54.76;96966.41;4956192;28;20019;-61
2022/03/18 07:10:06;;;;;;;66.07;43.50;;;;;;;11.86;53.37;96972.06;4955763;28;20480;-63
2022/03/18 07:12:33;;;;;;;63.30;41.45;;;;;;;12.14;51.43;96961.94;4956015;28;20031;-61
2022/03/18 07:14:58;;;;;;;57.85;41.25;;;;;;;12.31;50.99;96972.31;4955943;28;20027;-62
2022/03/18 07:20:09;;;;;;;59.00;40.85;;;;;;;12.38;50.46;96970.94;4955779;29;20118;-63
2022/03/18 07:22:35;;;;;;;58.38;38.22;;;;;;;11.93;51.18;96975.28;4955690;28;20400;-63
2022/03/18 07:25:01;;;;;;;56.95;38.45;;;;;;;12.58;49.33;96978.09;4954854;28;20042;-64
2022/03/18 07:27:26;;;;;;;53.40;36.75;;;;;;;13.18;48.17;96973.59;4955398;29;20029;-63
2022/03/18 07:29:51;;;;;;;48.65;35.25;;;;;;;13.29;46.60;96953.00;4955750;28;20465;-62
2022/03/18 07:32:17;;;;;;;48.28;35.47;;;;;;;13.05;46.19;96966.19;4955629;28;20034;-66
2022/03/18 07:34:43;;;;;;;47.40;35.42;;;;;;;12.47;46.50;96971.19;4955804;28;20035;-63
2022/03/18 07:37:08;;;;;;;56.08;36.42;;;;;;;13.40;46.03;96978.56;4955495;28;20488;-63
2022/03/18 07:39:33;;;;;;;53.63;35.80;;;;;;;12.99;45.76;96997.47;4955529;28;20023;-63
2022/03/18 07:41:59;;;;;;;46.90;33.90;;;;;;;12.55;48.12;96988.53;4940278;28;20150;-64
2022/03/18 07:44:24;;;;;;;49.33;35.45;;;;;;;13.10;46.11;96989.41;4936484;29;20203;-64
2022/03/18 07:46:50;;;;;;;52.72;35.47;;;;;;;12.38;46.40;96981.63;4936516;29;20396;-63
2022/03/18 07:49:15;;;;;;;49.05;34.85;;;;;;;12.65;46.72;96997.31;4936057;29;20497;-63
2022/03/18 07:51:40;;;;;;;51.00;35.53;;;;;;;13.28;45.84;96991.47;4936215;29;20039;-65
2022/03/18 07:54:06;;;;;;;39.60;32.17;;;;;;;13.14;45.16;97001.13;4936406;29;20036;-63
2022/03/18 07:56:31;;;;;;;50.35;35.65;;;;;;;13.01;45.22;97006.00;4946025;29;20027;-65
2022/03/18 07:58:57;;;;;;;42.35;32.60;;;;;;;13.23;44.69;97004.88;4955266;29;20113;-64
2022/03/18 08:01:23;;;;;;;49.17;32.72;;;;;;;12.67;45.64;97003.19;4955130;28;20532;-67
2022/03/18 08:03:49;;;;;;;38.83;32.28;;;;;;;12.91;44.18;97014.06;4955020;28;20042;-65
2022/03/18 08:06:14;;;;;;;42.72;32.58;;;;;;;12.94;44.65;97002.03;4955136;28;20031;-65
2022/03/18 08:08:40;;;;;;;44.55;33.08;;;;;;;13.31;44.61;97012.31;4960219;23;20054;-67
2022/03/18 08:11:05;;;;;;;42.10;33.83;;;;;;;13.30;43.96;97031.28;4933762;29;20432;-67
2022/03/18 08:13:31;;;;;;;48.05;33.50;;;;;;;12.30;44.69;96997.41;4935814;29;20109;-67
2022/03/18 08:15:56;;;;;;;44.17;32.60;;;;;;;11.59;45.75;96990.97;4935940;29;20429;-69
2022/03/18 08:18:22;;;;;;;43.00;31.38;;;;;;;11.97;45.73;97008.34;4935573;29;20027;-68
2022/03/18 08:20:51;;;;;;;45.85;31.98;;;;;;;12.53;44.59;97010.16;4935792;29;20023;-68
2022/03/18 08:23:17;;;;;;;47.47;32.35;;;;;;;13.31;43.35;97033.72;4935587;29;20024;-68
2022/03/18 08:25:43;;;;;;;43.45;30.08;;;;;;;13.75;41.90;97014.19;4934415;29;20095;-69
2022/03/18 08:28:09;;;;;;;41.60;30.90;;;;;;;13.85;41.36;96974.00;4935483;29;20032;-70
2022/03/18 08:30:35;;;;;;;38.53;29.92;;;;;;;13.76;40.89;97037.97;4935305;29;20059;-69
2022/03/18 08:33:01;;;;;;;41.47;30.70;;;;;;;13.79;41.21;97002.66;4935653;29;20021;-68
2022/03/18 08:35:27;;;;;;;43.90;30.13;;;;;;;13.86;40.82;97047.81;4934940;29;20042;-70
2022/03/18 08:37:57;;;;;;;46.60;30.02;;;;;;;13.69;41.23;97034.03;4935536;29;20031;-68
2022/03/18 08:40:28;;;;;;;39.53;29.50;;;;;;;14.07;41.18;97047.66;4935005;29;20036;-71
2022/03/18 08:42:55;;;;;;;43.67;29.45;;;;;;;13.88;40.25;96944.03;4934608;29;20417;-69
2022/03/18 08:45:21;;;;;;;42.20;30.55;;;;;;;12.97;41.94;97020.19;4935043;29;20028;-68
2022/03/18 08:47:47;;;;;;;41.08;30.23;;;;;;;13.43;40.51;97020.00;4934966;29;20091;-70
2022/03/18 08:50:13;;;;;;;38.83;29.38;;;;;;;14.61;39.32;97052.06;4934770;29;20102;-69
2022/03/18 08:52:40;;;;;;;36.42;30.10;;;;;;;14.76;37.75;97049.25;4935251;29;20028;-69
2022/03/18 08:55:07;;;;;;;40.75;30.38;;;;;;;14.99;37.48;97036.91;4934703;29;20042;-70
2022/03/18 08:57:35;;;;;;;38.95;29.67;;;;;;;14.74;37.68;97025.41;4931410;29;20501;-69
2022/03/18 09:00:00;;;;;;;36.83;28.45;;;;;;;14.23;38.29;96942.91;4932489;29;20489;-69
2022/03/18 09:02:26;;;;;;;38.40;30.58;;;;;;;15.14;37.33;97046.66;4933944;29;20031;-69
2022/03/18 09:04:52;;;;;;;38.55;31.23;;;;;;;14.12;39.38;97020.88;4933146;29;20038;-70
2022/03/18 09:07:18;;;;;;;44.15;31.17;;;;;;;14.60;38.13;97053.94;4933982;29;20034;-70
2022/03/18 09:09:44;;;;;;;40.25;30.25;;;;;;;14.56;38.11;97021.56;4933411;29;20035;-69
2022/03/18 09:12:10;;;;;;;38.72;30.08;;;;;;;14.55;38.52;97068.19;4932420;29;20074;-68
2022/03/18 09:14:35;;;;;;;40.35;32.00;;;;;;;13.90;39.54;97042.72;4934009;29;20048;-70
2022/03/18 09:17:00;;;;;;;39.92;31.00;;;;;;;14.41;39.33;97036.94;4932603;29;20122;-69
2022/03/18 09:19:26;;;;;;;44.03;32.38;;;;;;;13.93;39.61;97034.94;4933456;29;20036;-70
2022/03/18 09:21:52;;;;;;;38.88;31.70;;;;;;;13.87;40.50;97067.34;4932324;29;20031;-71
2022/03/18 09:24:18;;;;;;;46.25;30.17;;;;;;;13.87;40.24;97044.09;4933538;29;20039;-70
2022/03/18 09:26:43;;;;;;;40.35;30.50;;;;;;;14.45;39.08;97027.28;4931706;29;20035;-69
2022/03/18 09:29:09;;;;;;;46.40;30.63;;;;;;;13.75;38.98;96985.56;4916323;29;20015;-70
2022/03/18 09:31:34;;;;;;;46.17;28.08;;;;;;;14.02;39.86;97054.69;4917309;29;20114;-71
2022/03/18 09:34:00;;;;;;;38.70;28.50;;;;;;;14.18;39.36;97074.09;4934554;29;20028;-70
2022/03/18 09:36:25;;;;;;;35.00;25.50;;;;;;;13.60;41.21;97035.69;4934476;29;20020;-70
2022/03/18 09:38:51;;;;;;;38.22;29.20;;;;;;;14.20;40.00;97020.28;4932933;29;20140;-70
2022/03/18 09:41:17;;;;;;;40.60;26.98;;;;;;;14.98;37.91;97096.97;4933477;29;20097;-71
2022/03/18 09:43:43;;;;;;;40.00;25.33;;;;;;;14.77;38.02;97054.31;4933675;29;20031;-70
2022/03/18 09:46:16;;;;;;;36.30;22.92;;;;;;;14.57;36.83;97075.94;4934011;29;20032;-69
2022/03/18 09:48:43;;;;;;;34.28;26.77;;;;;;;14.38;37.21;96995.47;4934223;29;20038;-69
2022/03/18 09:51:08;;;;;;;34.78;24.48;;;;;;;14.13;38.88;97095.53;4934145;29;20027;-69
2022/03/18 09:53:34;;;;;;;33.80;26.50;;;;;;;14.81;37.92;97097.41;4934267;29;20023;-69
2022/03/18 09:56:00;;;;;;;39.35;26.77;;;;;;;13.62;39.12;97090.50;4917019;29;20477;-69
2022/03/18 09:58:26;;;;;;;33.33;25.05;;;;;;;13.58;38.67;96995.84;4916343;29;20032;-70
2022/03/18 10:00:57;;;;;;;32.58;25.02;;;;;;;13.37;39.32;97000.53;4934176;29;20492;-69
2022/03/18 10:03:28;;;;;;;35.53;25.85;;;;;;;13.96;38.15;97065.66;4934321;29;20028;-69
2022/03/18 10:05:59;;;;;;;36.57;27.80;;;;;;;13.63;38.77;97056.53;4934242;29;20067;-70
2022/03/18 10:08:25;;;;;;;36.42;25.77;;;;;;;13.68;38.41;97051.94;4932868;29;20287;-70
2022/03/18 10:10:51;;;;;;;34.40;25.50;;;;;;;14.08;37.52;97042.06;4933251;29;20224;-70
2022/03/18 10:13:16;;;;;;;32.92;24.23;;;;;;;14.59;36.93;97070.28;4916721;29;20556;-70
2022/03/18 10:15:43;;;;;;;34.08;24.73;;;;;;;14.47;36.87;97070.63;4934003;29;20035;-69
2022/03/18 10:18:14;;;;;;;36.55;24.98;;;;;;;14.26;36.03;97078.03;4932926;29;20091;-70
2022/03/18 10:20:45;;;;;;;31.40;22.55;;;;;;;13.94;36.79;97015.13;4933725;29;20059;-70
2022/03/18 10:23:17;;;;;;;;;;;;;;;14.88;36.21;97121.97;4934627;29;20103;-70
2022/03/18 10:25:48;;;;;;;37.28;29.10;;;;;;;14.60;36.34;97122.78;4935371;29;19921;-69
2022/03/18 10:28:13;;;;;;;37.28;28.52;;;;;;;14.62;36.38;97120.63;4937219;29;20028;-69
2022/03/18 10:30:39;;;;;;;37.40;28.83;;;;;;;14.15;36.31;97042.53;4937254;29;20030;-70
2022/03/18 10:33:05;;;;;;;45.38;29.08;;;;;;;14.05;36.73;97056.78;4920788;29;20495;-69
2022/03/18 10:38:32;;;;;;;30.23;23.85;;;;;;;14.54;33.17;97074.63;4937754;29;20384;-71
2022/03/18 10:41:00;;;;;;;35.00;25.05;;;;;;;14.52;33.83;97063.38;4920750;29;20028;-70
2022/03/18 10:43:26;;;;;;;34.58;27.02;;;;;;;15.15;33.99;97108.06;4922293;29;20039;-70
2022/03/18 10:46:18;;;;;;;32.63;26.45;;;;;;;15.54;32.36;97115.91;4917343;29;20028;-70
2022/03/18 10:49:04;;;;;;;33.75;26.08;;;;;;;15.23;32.91;97103.94;4899448;29;20063;-69
2022/03/18 10:51:31;;;;;;;32.33;25.80;;;;;;;15.07;33.14;97095.25;4901260;29;20175;-70
2022/03/18 10:53:57;;;;;;;31.92;23.35;;;;;;;15.31;32.35;97100.63;4918549;29;20385;-68
2022/03/18 10:56:23;;;;;;;24.48;20.65;;;;;;;15.48;30.00;97109.00;4918367;29;20384;-68
2022/03/18 10:58:48;;;;;;;30.45;22.27;;;;;;;14.75;30.42;97045.75;4934245;29;20058;-69
2022/03/18 11:01:15;;;;;;;27.58;21.98;;;;;;;14.27;31.36;97034.91;4937072;29;20481;-70
2022/03/18 11:03:41;;;;;;;30.33;25.02;;;;;;;15.21;32.62;97108.78;4920040;29;20123;-69
2022/03/18 11:06:07;;;;;;;27.00;23.58;;;;;;;15.07;31.64;97127.44;4937084;29;20051;-69
2022/03/18 11:08:47;;;;;;;28.00;23.33;;;;;;;13.55;32.94;97001.75;4919633;29;20552;-69
2022/03/18 11:11:21;;;;;;;29.58;24.15;;;;;;;14.08;33.43;97142.94;4920206;29;20032;-69
2022/03/18 11:14:06;;;;;;;26.70;22.42;;;;;;;13.43;32.80;97101.00;4936159;29;20039;-69
2022/03/18 11:16:39;;;;;;;33.97;23.00;;;;;;;14.20;32.81;97114.75;4937060;29;20028;-69
2022/03/18 11:19:12;;;;;;;32.42;24.13;;;;;;;13.73;33.46;97088.56;4936734;29;20047;-69
2022/03/18 11:21:39;;;;;;;32.42;23.73;;;;;;;13.98;33.43;97095.66;4920036;29;20031;-70
2022/03/18 11:24:06;;;;;;;32.15;24.75;;;;;;;13.44;34.65;97145.38;4936928;29;20028;-72
2022/03/18 11:26:34;;;;;;;27.02;22.95;;;;;;;13.74;33.91;97100.84;4936824;29;20028;-72
2022/03/18 11:29:14;;;;;;;36.97;23.58;;;;;;;13.57;34.28;97095.88;4935907;29;20384;-70
2022/03/18 11:31:40;;;;;;;31.85;24.55;;;;;;;14.30;33.20;97130.72;4936794;29;20027;-70
2022/03/18 11:34:11;;;;;;;32.83;23.55;;;;;;;15.06;32.97;97129.31;4936712;29;20024;-70
2022/03/18 11:36:44;;;;;;;33.67;24.63;;;;;;;14.65;32.81;97098.63;4936258;29;20033;-73